sensor_id;sensor_type;location;lat;lon;timestamp;pressure;altitude;pressure_sealevel;temperature;humidity
35577;BME280;21680;52.400;16.920;2023-07-13T00:01:51;100275.16;;;20.30;47.31
35577;BME280;21680;52.400;16.920;2023-07-13T00:04:20;100274.01;;;20.26;47.36
35577;BME280;21680;52.400;16.920;2023-07-13T00:06:46;100273.62;;;20.22;47.42
35577;BME280;21680;52.400;16.920;2023-07-13T00:09:14;100272.81;;;20.15;47.53
35577;BME280;21680;52.400;16.920;2023-07-13T00:11:40;100276.81;;;20.11;47.68
35577;BME280;21680;52.400;16.920;2023-07-13T00:14:06;100279.38;;;20.09;47.78
35577;BME280;21680;52.400;16.920;2023-07-13T00:16:34;100283.94;;;20.05;47.82
35577;BME280;21680;52.400;16.920;2023-07-13T00:19:00;100292.05;;;20.01;47.93
35577;BME280;21680;52.400;16.920;2023-07-13T00:21:25;100300.48;;;19.98;47.98
35577;BME280;21680;52.400;16.920;2023-07-13T00:23:51;100313.21;;;19.96;48.14
35577;BME280;21680;52.400;16.920;2023-07-13T00:26:16;100317.98;;;19.93;48.31
35577;BME280;21680;52.400;16.920;2023-07-13T00:28:42;100326.68;;;19.93;48.35
35577;BME280;21680;52.400;16.920;2023-07-13T00:31:09;100333.29;;;19.96;48.46
35577;BME280;21680;52.400;16.920;2023-07-13T00:33:35;100324.21;;;19.98;48.49
35577;BME280;21680;52.400;16.920;2023-07-13T00:36:01;100314.35;;;20.01;48.53
35577;BME280;21680;52.400;16.920;2023-07-13T00:38:26;100308.02;;;20.01;48.67
35577;BME280;21680;52.400;16.920;2023-07-13T00:40:52;100307.17;;;20.00;48.57
35577;BME280;21680;52.400;16.920;2023-07-13T00:43:19;100301.20;;;20.00;48.53
35577;BME280;21680;52.400;16.920;2023-07-13T00:48:12;100294.66;;;20.02;48.66
35577;BME280;21680;52.400;16.920;2023-07-13T00:50:39;100291.42;;;20.02;48.73
35577;BME280;21680;52.400;16.920;2023-07-13T00:53:06;100287.88;;;20.03;48.72
35577;BME280;21680;52.400;16.920;2023-07-13T00:55:33;100287.71;;;20.09;48.77
35577;BME280;21680;52.400;16.920;2023-07-13T00:57:59;100286.65;;;20.15;48.76
35577;BME280;21680;52.400;16.920;2023-07-13T01:00:25;100291.16;;;20.19;48.77
35577;BME280;21680;52.400;16.920;2023-07-13T01:02:51;100288.05;;;20.22;48.80
35577;BME280;21680;52.400;16.920;2023-07-13T01:05:20;100287.05;;;20.23;48.89
35577;BME280;21680;52.400;16.920;2023-07-13T01:07:47;100290.38;;;20.22;48.89
35577;BME280;21680;52.400;16.920;2023-07-13T01:10:14;100293.86;;;20.20;48.86
35577;BME280;21680;52.400;16.920;2023-07-13T01:12:40;100300.80;;;20.17;48.87
35577;BME280;21680;52.400;16.920;2023-07-13T01:18:05;100300.58;;;20.11;49.05
35577;BME280;21680;52.400;16.920;2023-07-13T01:20:31;100303.91;;;20.08;49.15
35577;BME280;21680;52.400;16.920;2023-07-13T01:23:04;100303.67;;;20.07;49.14
35577;BME280;21680;52.400;16.920;2023-07-13T01:25:31;100302.98;;;20.05;49.27
35577;BME280;21680;52.400;16.920;2023-07-13T01:27:57;100306.04;;;20.03;49.20
35577;BME280;21680;52.400;16.920;2023-07-13T01:30:22;100310.11;;;20.00;49.33
35577;BME280;21680;52.400;16.920;2023-07-13T01:32:47;100315.72;;;19.94;49.41
35577;BME280;21680;52.400;16.920;2023-07-13T01:35:13;100308.60;;;19.86;49.50
35577;BME280;21680;52.400;16.920;2023-07-13T01:37:38;100309.59;;;19.83;49.67
35577;BME280;21680;52.400;16.920;2023-07-13T01:40:04;100306.27;;;19.84;49.84
35577;BME280;21680;52.400;16.920;2023-07-13T01:42:30;100308.88;;;19.83;49.81
35577;BME280;21680;52.400;16.920;2023-07-13T01:44:55;100311.73;;;19.82;49.77
35577;BME280;21680;52.400;16.920;2023-07-13T01:47:22;100310.02;;;19.78;49.78
35577;BME280;21680;52.400;16.920;2023-07-13T01:49:48;100303.98;;;19.74;49.79
35577;BME280;21680;52.400;16.920;2023-07-13T01:52:13;100303.25;;;19.72;49.89
35577;BME280;21680;52.400;16.920;2023-07-13T01:54:38;100301.40;;;19.71;50.13
35577;BME280;21680;52.400;16.920;2023-07-13T01:57:04;100296.80;;;19.66;50.15
35577;BME280;21680;52.400;16.920;2023-07-13T01:59:29;100292.76;;;19.62;50.24
35577;BME280;21680;52.400;16.920;2023-07-13T02:01:54;100289.89;;;19.57;50.34
35577;BME280;21680;52.400;16.920;2023-07-13T02:04:20;100288.28;;;19.55;50.31
35577;BME280;21680;52.400;16.920;2023-07-13T02:06:45;100283.36;;;19.51;50.43
35577;BME280;21680;52.400;16.920;2023-07-13T02:09:10;100284.08;;;19.49;50.52
35577;BME280;21680;52.400;16.920;2023-07-13T02:11:35;100283.45;;;19.42;50.69
35577;BME280;21680;52.400;16.920;2023-07-13T02:14:01;100285.00;;;19.34;51.01
35577;BME280;21680;52.400;16.920;2023-07-13T02:16:28;100284.38;;;19.33;51.20
35577;BME280;21680;52.400;16.920;2023-07-13T02:18:53;100290.05;;;19.32;51.14
35577;BME280;21680;52.400;16.920;2023-07-13T02:21:21;100296.42;;;19.32;51.29
35577;BME280;21680;52.400;16.920;2023-07-13T02:23:46;100294.94;;;19.32;51.34
35577;BME280;21680;52.400;16.920;2023-07-13T02:26:12;100298.19;;;19.28;51.50
35577;BME280;21680;52.400;16.920;2023-07-13T02:28:38;100298.06;;;19.23;51.64
35577;BME280;21680;52.400;16.920;2023-07-13T02:31:08;100298.52;;;19.20;51.88
35577;BME280;21680;52.400;16.920;2023-07-13T02:33:34;100301.75;;;19.14;51.99
35577;BME280;21680;52.400;16.920;2023-07-13T02:35:59;100299.85;;;19.06;52.46
35577;BME280;21680;52.400;16.920;2023-07-13T02:38:25;100296.89;;;19.03;52.38
35577;BME280;21680;52.400;16.920;2023-07-13T02:40:50;100305.92;;;19.01;52.60
35577;BME280;21680;52.400;16.920;2023-07-13T02:43:16;100308.36;;;18.98;52.74
35577;BME280;21680;52.400;16.920;2023-07-13T02:45:45;100311.38;;;18.94;52.90
35577;BME280;21680;52.400;16.920;2023-07-13T02:48:10;100312.66;;;18.90;53.07
35577;BME280;21680;52.400;16.920;2023-07-13T02:50:35;100313.38;;;18.86;53.38
35577;BME280;21680;52.400;16.920;2023-07-13T02:53:01;100314.10;;;18.84;53.77
35577;BME280;21680;52.400;16.920;2023-07-13T02:55:26;100320.00;;;18.85;53.95
35577;BME280;21680;52.400;16.920;2023-07-13T02:57:51;100323.73;;;18.83;54.00
35577;BME280;21680;52.400;16.920;2023-07-13T03:00:17;100321.83;;;18.82;54.22
35577;BME280;21680;52.400;16.920;2023-07-13T03:02:42;100325.54;;;18.81;54.47
35577;BME280;21680;52.400;16.920;2023-07-13T03:05:08;100322.97;;;18.79;54.68
35577;BME280;21680;52.400;16.920;2023-07-13T03:07:37;100313.98;;;18.76;54.95
35577;BME280;21680;52.400;16.920;2023-07-13T03:10:03;100307.50;;;18.75;55.45
35577;BME280;21680;52.400;16.920;2023-07-13T03:12:29;100311.98;;;18.74;55.73
35577;BME280;21680;52.400;16.920;2023-07-13T03:14:54;100314.61;;;18.75;56.03
35577;BME280;21680;52.400;16.920;2023-07-13T03:17:20;100307.83;;;18.76;56.09
35577;BME280;21680;52.400;16.920;2023-07-13T03:19:45;100302.91;;;18.77;56.06
35577;BME280;21680;52.400;16.920;2023-07-13T03:22:15;100304.98;;;18.76;56.32
35577;BME280;21680;52.400;16.920;2023-07-13T03:24:40;100314.48;;;18.77;56.43
35577;BME280;21680;52.400;16.920;2023-07-13T03:27:06;100318.16;;;18.76;56.87
35577;BME280;21680;52.400;16.920;2023-07-13T03:29:31;100313.23;;;18.76;56.93
35577;BME280;21680;52.400;16.920;2023-07-13T03:31:56;100309.88;;;18.78;57.32
35577;BME280;21680;52.400;16.920;2023-07-13T03:34:22;100311.04;;;18.81;57.84
35577;BME280;21680;52.400;16.920;2023-07-13T03:36:47;100308.35;;;18.85;57.75
35577;BME280;21680;52.400;16.920;2023-07-13T03:39:12;100301.72;;;18.89;57.92
35577;BME280;21680;52.400;16.920;2023-07-13T03:41:38;100301.25;;;18.90;58.00
35577;BME280;21680;52.400;16.920;2023-07-13T03:44:03;100298.73;;;18.90;58.42
35577;BME280;21680;52.400;16.920;2023-07-13T03:46:29;100299.41;;;18.92;58.73
35577;BME280;21680;52.400;16.920;2023-07-13T03:48:54;100308.19;;;18.95;58.78
35577;BME280;21680;52.400;16.920;2023-07-13T03:51:19;100324.56;;;18.97;59.12
35577;BME280;21680;52.400;16.920;2023-07-13T03:53:46;100333.14;;;19.00;59.40
35577;BME280;21680;52.400;16.920;2023-07-13T03:56:13;100333.66;;;19.03;59.63
35577;BME280;21680;52.400;16.920;2023-07-13T03:58:41;100340.57;;;19.04;59.71
35577;BME280;21680;52.400;16.920;2023-07-13T04:01:10;100343.63;;;19.05;59.72
35577;BME280;21680;52.400;16.920;2023-07-13T04:03:36;100345.83;;;19.02;59.98
35577;BME280;21680;52.400;16.920;2023-07-13T04:06:03;100345.21;;;19.01;60.28
35577;BME280;21680;52.400;16.920;2023-07-13T04:08:32;100352.30;;;19.03;60.53
35577;BME280;21680;52.400;16.920;2023-07-13T04:10:58;100354.66;;;19.05;60.69
35577;BME280;21680;52.400;16.920;2023-07-13T04:13:24;100353.94;;;19.05;60.84
35577;BME280;21680;52.400;16.920;2023-07-13T04:15:50;100352.84;;;19.05;60.94
35577;BME280;21680;52.400;16.920;2023-07-13T04:18:16;100346.56;;;19.04;60.99
35577;BME280;21680;52.400;16.920;2023-07-13T04:20:41;100336.91;;;19.03;61.44
35577;BME280;21680;52.400;16.920;2023-07-13T04:23:07;100337.05;;;19.03;61.52
35577;BME280;21680;52.400;16.920;2023-07-13T04:25:32;100342.69;;;19.05;61.76
35577;BME280;21680;52.400;16.920;2023-07-13T04:27:57;100345.55;;;19.06;62.00
35577;BME280;21680;52.400;16.920;2023-07-13T04:30:23;100350.85;;;19.07;62.34
35577;BME280;21680;52.400;16.920;2023-07-13T04:32:50;100359.31;;;19.10;62.55
35577;BME280;21680;52.400;16.920;2023-07-13T04:35:20;100361.40;;;19.07;62.49
35577;BME280;21680;52.400;16.920;2023-07-13T04:37:47;100358.78;;;18.99;62.93
35577;BME280;21680;52.400;16.920;2023-07-13T04:40:12;100355.30;;;18.95;63.31
35577;BME280;21680;52.400;16.920;2023-07-13T04:42:38;100354.43;;;18.99;63.46
35577;BME280;21680;52.400;16.920;2023-07-13T04:45:06;100363.70;;;19.05;63.80
35577;BME280;21680;52.400;16.920;2023-07-13T04:47:31;100370.48;;;19.13;64.06
35577;BME280;21680;52.400;16.920;2023-07-13T04:49:56;100367.64;;;19.19;64.10
35577;BME280;21680;52.400;16.920;2023-07-13T04:52:23;100363.42;;;19.21;64.39
35577;BME280;21680;52.400;16.920;2023-07-13T04:54:49;100354.45;;;19.25;64.42
35577;BME280;21680;52.400;16.920;2023-07-13T04:57:14;100358.10;;;19.27;64.40
35577;BME280;21680;52.400;16.920;2023-07-13T04:59:39;100361.30;;;19.29;64.68
35577;BME280;21680;52.400;16.920;2023-07-13T05:02:05;100363.88;;;19.33;64.85
35577;BME280;21680;52.400;16.920;2023-07-13T05:04:30;100363.10;;;19.38;64.85
35577;BME280;21680;52.400;16.920;2023-07-13T05:06:56;100363.98;;;19.38;64.77
35577;BME280;21680;52.400;16.920;2023-07-13T05:09:21;100370.91;;;19.38;65.14
35577;BME280;21680;52.400;16.920;2023-07-13T05:11:47;100381.89;;;19.43;65.22
35577;BME280;21680;52.400;16.920;2023-07-13T05:14:12;100383.42;;;19.46;65.33
35577;BME280;21680;52.400;16.920;2023-07-13T05:16:37;100383.58;;;19.47;65.31
35577;BME280;21680;52.400;16.920;2023-07-13T05:19:02;100380.98;;;19.45;65.41
35577;BME280;21680;52.400;16.920;2023-07-13T05:21:28;100383.84;;;19.43;65.60
35577;BME280;21680;52.400;16.920;2023-07-13T05:23:54;100381.11;;;19.42;65.77
35577;BME280;21680;52.400;16.920;2023-07-13T05:26:19;100385.36;;;19.47;66.02
35577;BME280;21680;52.400;16.920;2023-07-13T05:28:46;100387.68;;;19.52;66.01
35577;BME280;21680;52.400;16.920;2023-07-13T05:31:11;100390.73;;;19.57;66.17
35577;BME280;21680;52.400;16.920;2023-07-13T05:33:36;100394.61;;;19.58;66.05
35577;BME280;21680;52.400;16.920;2023-07-13T05:36:02;100399.48;;;19.56;66.04
35577;BME280;21680;52.400;16.920;2023-07-13T05:38:28;100402.73;;;19.52;66.06
35577;BME280;21680;52.400;16.920;2023-07-13T05:40:55;100411.23;;;19.50;66.43
35577;BME280;21680;52.400;16.920;2023-07-13T05:43:21;100414.73;;;19.47;66.35
35577;BME280;21680;52.400;16.920;2023-07-13T05:45:48;100416.91;;;19.40;66.54
35577;BME280;21680;52.400;16.920;2023-07-13T05:48:14;100421.56;;;19.37;66.91
35577;BME280;21680;52.400;16.920;2023-07-13T05:50:40;100430.25;;;19.41;67.12
35577;BME280;21680;52.400;16.920;2023-07-13T05:53:05;100435.48;;;19.43;67.07
35577;BME280;21680;52.400;16.920;2023-07-13T05:55:30;100437.31;;;19.43;67.13
35577;BME280;21680;52.400;16.920;2023-07-13T05:57:56;100435.84;;;19.46;67.28
35577;BME280;21680;52.400;16.920;2023-07-13T06:00:23;100437.89;;;19.50;67.35
35577;BME280;21680;52.400;16.920;2023-07-13T06:02:48;100435.32;;;19.48;67.24
35577;BME280;21680;52.400;16.920;2023-07-13T06:05:14;100437.23;;;19.49;67.40
35577;BME280;21680;52.400;16.920;2023-07-13T06:07:39;100437.25;;;19.51;67.32
35577;BME280;21680;52.400;16.920;2023-07-13T06:10:05;100443.39;;;19.54;67.33
35577;BME280;21680;52.400;16.920;2023-07-13T06:12:30;100448.20;;;19.54;67.35
35577;BME280;21680;52.400;16.920;2023-07-13T06:14:55;100451.92;;;19.53;67.36
35577;BME280;21680;52.400;16.920;2023-07-13T06:17:20;100456.94;;;19.54;67.37
35577;BME280;21680;52.400;16.920;2023-07-13T06:19:46;100457.81;;;19.52;67.48
35577;BME280;21680;52.400;16.920;2023-07-13T06:22:11;100464.99;;;19.53;67.57
35577;BME280;21680;52.400;16.920;2023-07-13T06:24:36;100468.77;;;19.54;67.57
35577;BME280;21680;52.400;16.920;2023-07-13T06:27:02;100471.92;;;19.57;67.61
35577;BME280;21680;52.400;16.920;2023-07-13T06:29:27;100473.09;;;19.54;67.61
35577;BME280;21680;52.400;16.920;2023-07-13T06:31:52;100473.23;;;19.47;67.77
35577;BME280;21680;52.400;16.920;2023-07-13T06:34:17;100472.91;;;19.44;67.96
35577;BME280;21680;52.400;16.920;2023-07-13T06:36:43;100474.10;;;19.48;68.03
35577;BME280;21680;52.400;16.920;2023-07-13T06:39:09;100474.58;;;19.53;68.12
35577;BME280;21680;52.400;16.920;2023-07-13T06:41:34;100479.09;;;19.58;68.12
35577;BME280;21680;52.400;16.920;2023-07-13T06:43:59;100485.23;;;19.60;68.23
35577;BME280;21680;52.400;16.920;2023-07-13T06:46:25;100485.12;;;19.68;68.21
35577;BME280;21680;52.400;16.920;2023-07-13T06:48:50;100491.70;;;19.76;68.35
35577;BME280;21680;52.400;16.920;2023-07-13T06:51:16;100490.82;;;19.85;68.33
35577;BME280;21680;52.400;16.920;2023-07-13T06:53:41;100487.61;;;19.92;68.31
35577;BME280;21680;52.400;16.920;2023-07-13T06:56:09;100484.81;;;19.97;68.32
35577;BME280;21680;52.400;16.920;2023-07-13T06:58:36;100482.59;;;20.02;68.28
35577;BME280;21680;52.400;16.920;2023-07-13T07:01:02;100481.73;;;20.06;68.14
35577;BME280;21680;52.400;16.920;2023-07-13T07:03:28;100478.77;;;20.06;68.22
35577;BME280;21680;52.400;16.920;2023-07-13T07:05:53;100481.04;;;20.14;68.22
35577;BME280;21680;52.400;16.920;2023-07-13T07:08:18;100482.30;;;20.20;68.17
35577;BME280;21680;52.400;16.920;2023-07-13T07:10:43;100486.94;;;20.27;68.16
35577;BME280;21680;52.400;16.920;2023-07-13T07:13:09;100489.50;;;20.33;68.12
35577;BME280;21680;52.400;16.920;2023-07-13T07:15:35;100487.66;;;20.40;68.05
35577;BME280;21680;52.400;16.920;2023-07-13T07:18:01;100487.53;;;20.42;68.01
35577;BME280;21680;52.400;16.920;2023-07-13T07:20:26;100483.15;;;20.42;68.00
35577;BME280;21680;52.400;16.920;2023-07-13T07:22:52;100480.41;;;20.42;67.91
35577;BME280;21680;52.400;16.920;2023-07-13T07:25:17;100482.96;;;20.49;67.96
35577;BME280;21680;52.400;16.920;2023-07-13T07:27:43;100486.52;;;20.55;67.89
35577;BME280;21680;52.400;16.920;2023-07-13T07:30:09;100485.73;;;20.56;67.93
35577;BME280;21680;52.400;16.920;2023-07-13T07:32:34;100477.27;;;20.60;67.93
35577;BME280;21680;52.400;16.920;2023-07-13T07:35:00;100477.08;;;20.63;67.86
35577;BME280;21680;52.400;16.920;2023-07-13T07:37:25;100476.96;;;20.71;67.76
35577;BME280;21680;52.400;16.920;2023-07-13T07:39:50;100478.45;;;20.85;67.71
35577;BME280;21680;52.400;16.920;2023-07-13T07:42:16;100479.56;;;20.94;67.58
35577;BME280;21680;52.400;16.920;2023-07-13T07:44:41;100482.27;;;21.01;67.49
35577;BME280;21680;52.400;16.920;2023-07-13T07:47:08;100480.13;;;21.13;67.25
35577;BME280;21680;52.400;16.920;2023-07-13T07:49:34;100475.27;;;21.22;67.02
35577;BME280;21680;52.400;16.920;2023-07-13T07:52:00;100475.20;;;21.23;66.79
35577;BME280;21680;52.400;16.920;2023-07-13T07:54:25;100475.11;;;21.24;66.51
35577;BME280;21680;52.400;16.920;2023-07-13T07:56:50;100476.49;;;21.35;66.42
35577;BME280;21680;52.400;16.920;2023-07-13T07:59:16;100478.16;;;21.47;66.23
35577;BME280;21680;52.400;16.920;2023-07-13T08:01:41;100481.08;;;21.60;66.08
35577;BME280;21680;52.400;16.920;2023-07-13T08:04:06;100484.66;;;21.72;65.76
35577;BME280;21680;52.400;16.920;2023-07-13T08:06:32;100485.45;;;21.84;65.58
35577;BME280;21680;52.400;16.920;2023-07-13T08:08:59;100492.92;;;21.93;65.15
35577;BME280;21680;52.400;16.920;2023-07-13T08:11:25;100489.61;;;22.03;64.91
35577;BME280;21680;52.400;16.920;2023-07-13T08:13:50;100484.77;;;22.08;64.63
35577;BME280;21680;52.400;16.920;2023-07-13T08:16:16;100484.27;;;22.10;64.30
35577;BME280;21680;52.400;16.920;2023-07-13T08:18:41;100485.31;;;22.10;63.85
35577;BME280;21680;52.400;16.920;2023-07-13T08:21:08;100485.38;;;22.10;63.82
35577;BME280;21680;52.400;16.920;2023-07-13T08:23:34;100484.83;;;22.10;63.46
35577;BME280;21680;52.400;16.920;2023-07-13T08:25:59;100484.59;;;22.14;63.19
35577;BME280;21680;52.400;16.920;2023-07-13T08:28:27;100487.84;;;22.24;62.98
35577;BME280;21680;52.400;16.920;2023-07-13T08:30:53;100486.67;;;22.32;62.72
35577;BME280;21680;52.400;16.920;2023-07-13T08:33:19;100487.29;;;22.41;62.64
35577;BME280;21680;52.400;16.920;2023-07-13T08:35:46;100489.14;;;22.52;62.48
35577;BME280;21680;52.400;16.920;2023-07-13T08:38:12;100486.09;;;22.67;62.36
35577;BME280;21680;52.400;16.920;2023-07-13T08:40:38;100489.20;;;22.84;62.28
35577;BME280;21680;52.400;16.920;2023-07-13T08:43:04;100494.86;;;22.94;61.99
35577;BME280;21680;52.400;16.920;2023-07-13T08:48:09;100494.48;;;23.10;61.50
35577;BME280;21680;52.400;16.920;2023-07-13T08:53:27;100496.41;;;23.35;61.05
35577;BME280;21680;52.400;16.920;2023-07-13T08:55:58;100494.73;;;23.40;60.86
35577;BME280;21680;52.400;16.920;2023-07-13T08:58:25;100487.57;;;23.39;60.60
35577;BME280;21680;52.400;16.920;2023-07-13T09:01:08;100485.23;;;23.37;60.33
35577;BME280;21680;52.400;16.920;2023-07-13T09:03:41;100482.65;;;23.40;60.41
35577;BME280;21680;52.400;16.920;2023-07-13T09:06:12;100484.23;;;23.43;59.99
35577;BME280;21680;52.400;16.920;2023-07-13T09:14:01;100490.96;;;23.72;59.67
35577;BME280;21680;52.400;16.920;2023-07-13T09:16:32;100489.00;;;23.77;59.45
35577;BME280;21680;52.400;16.920;2023-07-13T09:19:04;100486.04;;;23.81;59.36
35577;BME280;21680;52.400;16.920;2023-07-13T09:21:37;100488.36;;;23.85;59.09
35577;BME280;21680;52.400;16.920;2023-07-13T09:24:29;100489.77;;;23.95;59.00
35577;BME280;21680;52.400;16.920;2023-07-13T09:26:56;100494.17;;;24.05;58.86
35577;BME280;21680;52.400;16.920;2023-07-13T09:29:32;100489.16;;;23.99;58.56
35577;BME280;21680;52.400;16.920;2023-07-13T09:32:02;100489.81;;;24.00;58.16
35577;BME280;21680;52.400;16.920;2023-07-13T09:34:29;100485.17;;;24.06;58.32
35577;BME280;21680;52.400;16.920;2023-07-13T09:36:56;100484.05;;;24.13;58.14
35577;BME280;21680;52.400;16.920;2023-07-13T09:39:27;100479.48;;;24.15;57.99
35577;BME280;21680;52.400;16.920;2023-07-13T09:42:13;100481.76;;;24.14;58.00
35577;BME280;21680;52.400;16.920;2023-07-13T09:44:55;100484.05;;;24.13;57.77
35577;BME280;21680;52.400;16.920;2023-07-13T09:47:27;100489.35;;;24.13;57.92
35577;BME280;21680;52.400;16.920;2023-07-13T09:50:04;100491.52;;;24.08;57.72
35577;BME280;21680;52.400;16.920;2023-07-13T09:52:42;100494.19;;;23.96;57.54
35577;BME280;21680;52.400;16.920;2023-07-13T09:55:30;100488.13;;;23.89;57.50
35577;BME280;21680;52.400;16.920;2023-07-13T09:57:57;100491.80;;;23.96;57.44
35577;BME280;21680;52.400;16.920;2023-07-13T10:00:28;100492.77;;;24.01;57.40
35577;BME280;21680;52.400;16.920;2023-07-13T10:03:25;100490.63;;;24.10;57.38
35577;BME280;21680;52.400;16.920;2023-07-13T10:05:51;100495.96;;;24.09;57.03
35577;BME280;21680;52.400;16.920;2023-07-13T10:08:23;100495.44;;;24.00;56.62
35577;BME280;21680;52.400;16.920;2023-07-13T10:10:53;100491.07;;;24.00;56.78
35577;BME280;21680;52.400;16.920;2023-07-13T10:13:26;100488.08;;;24.17;56.88
35577;BME280;21680;52.400;16.920;2023-07-13T10:15:52;100487.36;;;24.41;56.89
35577;BME280;21680;52.400;16.920;2023-07-13T10:18:19;100484.67;;;24.62;56.43
35577;BME280;21680;52.400;16.920;2023-07-13T10:20:46;100487.30;;;24.76;56.05
35577;BME280;21680;52.400;16.920;2023-07-13T10:23:15;100489.16;;;24.88;55.90
35577;BME280;21680;52.400;16.920;2023-07-13T10:25:47;100493.84;;;24.96;55.40
35577;BME280;21680;52.400;16.920;2023-07-13T10:28:30;100494.88;;;25.00;55.24
35577;BME280;21680;52.400;16.920;2023-07-13T10:30:59;100499.39;;;24.99;54.76
35577;BME280;21680;52.400;16.920;2023-07-13T10:33:25;100503.61;;;24.91;54.52
35577;BME280;21680;52.400;16.920;2023-07-13T10:36:01;100503.58;;;24.80;54.23
35577;BME280;21680;52.400;16.920;2023-07-13T10:38:29;100504.09;;;24.75;54.04
35577;BME280;21680;52.400;16.920;2023-07-13T10:41:03;100497.95;;;24.74;53.94
35577;BME280;21680;52.400;16.920;2023-07-13T10:43:41;100495.61;;;24.69;53.65
35577;BME280;21680;52.400;16.920;2023-07-13T10:46:11;100493.80;;;24.58;53.52
35577;BME280;21680;52.400;16.920;2023-07-13T10:48:39;100496.40;;;24.58;53.46
35577;BME280;21680;52.400;16.920;2023-07-13T10:51:06;100493.85;;;24.61;53.52
35577;BME280;21680;52.400;16.920;2023-07-13T10:53:36;100494.80;;;24.70;53.36
35577;BME280;21680;52.400;16.920;2023-07-13T10:56:04;100498.81;;;24.80;53.34
35577;BME280;21680;52.400;16.920;2023-07-13T10:58:43;100496.77;;;24.96;53.44
35577;BME280;21680;52.400;16.920;2023-07-13T11:01:14;100493.50;;;25.11;52.95
35577;BME280;21680;52.400;16.920;2023-07-13T11:06:33;100482.55;;;25.40;52.94
35577;BME280;21680;52.400;16.920;2023-07-13T11:09:38;100483.92;;;25.49;52.53
35577;BME280;21680;52.400;16.920;2023-07-13T11:15:03;100485.61;;;25.53;52.32
35577;BME280;21680;52.400;16.920;2023-07-13T11:22:47;100491.77;;;25.38;51.85
35577;BME280;21680;52.400;16.920;2023-07-13T11:30:36;100490.58;;;25.38;51.16
35577;BME280;21680;52.400;16.920;2023-07-13T11:36:12;100488.79;;;25.38;50.34
35577;BME280;21680;52.400;16.920;2023-07-13T11:38:43;100486.04;;;25.36;50.05
35577;BME280;21680;52.400;16.920;2023-07-13T11:41:23;100484.91;;;25.38;49.74
35577;BME280;21680;52.400;16.920;2023-07-13T11:43:53;100489.00;;;25.24;48.82
35577;BME280;21680;52.400;16.920;2023-07-13T11:46:24;100484.46;;;25.02;48.47
35577;BME280;21680;52.400;16.920;2023-07-13T11:48:51;100480.11;;;24.94;48.68
35577;BME280;21680;52.400;16.920;2023-07-13T11:51:23;100480.66;;;25.01;48.83
35577;BME280;21680;52.400;16.920;2023-07-13T11:53:54;100478.99;;;25.17;48.84
35577;BME280;21680;52.400;16.920;2023-07-13T11:56:23;100478.82;;;25.25;48.58
35577;BME280;21680;52.400;16.920;2023-07-13T11:58:54;100482.86;;;25.23;47.82
35577;BME280;21680;52.400;16.920;2023-07-13T12:01:22;100481.95;;;25.11;46.42
35577;BME280;21680;52.400;16.920;2023-07-13T12:03:49;100486.85;;;25.10;45.66
35577;BME280;21680;52.400;16.920;2023-07-13T12:06:31;100484.65;;;25.24;45.32
35577;BME280;21680;52.400;16.920;2023-07-13T12:09:00;100487.14;;;25.48;44.64
35577;BME280;21680;52.400;16.920;2023-07-13T12:11:29;100479.45;;;25.65;43.80
35577;BME280;21680;52.400;16.920;2023-07-13T12:13:55;100479.09;;;25.75;43.08
35577;BME280;21680;52.400;16.920;2023-07-13T12:16:29;100472.16;;;25.83;42.64
35577;BME280;21680;52.400;16.920;2023-07-13T12:18:57;100463.86;;;26.06;42.46
35577;BME280;21680;52.400;16.920;2023-07-13T12:21:31;100466.03;;;26.28;40.87
35577;BME280;21680;52.400;16.920;2023-07-13T12:23:57;100476.29;;;26.46;40.19
35577;BME280;21680;52.400;16.920;2023-07-13T12:26:23;100473.95;;;26.52;39.87
35577;BME280;21680;52.400;16.920;2023-07-13T12:28:52;100476.21;;;26.48;39.45
35577;BME280;21680;52.400;16.920;2023-07-13T12:34:05;100474.36;;;26.14;39.03
35577;BME280;21680;52.400;16.920;2023-07-13T12:36:34;100474.53;;;26.22;39.20
35577;BME280;21680;52.400;16.920;2023-07-13T12:39:13;100471.89;;;26.38;38.48
35577;BME280;21680;52.400;16.920;2023-07-13T12:41:39;100465.26;;;26.43;38.26
35577;BME280;21680;52.400;16.920;2023-07-13T12:44:12;100457.42;;;26.46;38.20
35577;BME280;21680;52.400;16.920;2023-07-13T12:46:38;100461.13;;;26.47;38.26
35577;BME280;21680;52.400;16.920;2023-07-13T12:49:07;100459.96;;;26.46;37.28
35577;BME280;21680;52.400;16.920;2023-07-13T12:51:32;100458.90;;;26.41;37.26
35577;BME280;21680;52.400;16.920;2023-07-13T12:54:12;100462.23;;;26.35;36.65
35577;BME280;21680;52.400;16.920;2023-07-13T12:56:38;100461.01;;;26.25;36.41
35577;BME280;21680;52.400;16.920;2023-07-13T12:59:04;100454.96;;;26.22;36.50
35577;BME280;21680;52.400;16.920;2023-07-13T13:01:34;100455.36;;;26.33;36.43
35577;BME280;21680;52.400;16.920;2023-07-13T13:04:03;100452.56;;;26.55;35.29
35577;BME280;21680;52.400;16.920;2023-07-13T13:06:34;100463.39;;;26.69;34.95
35577;BME280;21680;52.400;16.920;2023-07-13T13:09:02;100461.09;;;26.82;34.55
35577;BME280;21680;52.400;16.920;2023-07-13T13:11:30;100458.85;;;26.96;34.56
35577;BME280;21680;52.400;16.920;2023-07-13T13:13:56;100461.00;;;27.14;34.38
35577;BME280;21680;52.400;16.920;2023-07-13T13:16:47;100449.06;;;27.28;34.18
35577;BME280;21680;52.400;16.920;2023-07-13T13:19:20;100443.16;;;27.23;34.30
35577;BME280;21680;52.400;16.920;2023-07-13T13:21:47;100450.02;;;27.38;34.12